sensor_id;sensor_type;location;lat;lon;timestamp;P1;durP1;ratioP1;P2;durP2;ratioP2
495;SDS011;39559;48.630;9.162;2023-02-17T00:01:36;8.00;;;6.50;;
495;SDS011;39559;48.630;9.162;2023-02-17T00:04:02;7.80;;;5.70;;
495;SDS011;39559;48.630;9.162;2023-02-17T00:06:28;6.53;;;5.73;;
495;SDS011;39559;48.630;9.162;2023-02-17T00:08:55;8.13;;;5.53;;
495;SDS011;39559;48.630;9.162;2023-02-17T00:13:27;6.10;;;5.05;;
495;SDS011;39559;48.630;9.162;2023-02-17T00:15:53;9.43;;;5.80;;
495;SDS011;39559;48.630;9.162;2023-02-17T00:18:19;6.53;;;5.63;;
495;SDS011;39559;48.630;9.162;2023-02-17T00:20:44;9.70;;;6.43;;
495;SDS011;39559;48.630;9.162;2023-02-17T00:23:10;7.33;;;5.17;;
495;SDS011;39559;48.630;9.162;2023-02-17T00:25:38;7.30;;;5.30;;
495;SDS011;39559;48.630;9.162;2023-02-17T00:28:04;6.20;;;5.13;;
495;SDS011;39559;48.630;9.162;2023-02-17T00:30:30;6.60;;;5.37;;
495;SDS011;39559;48.630;9.162;2023-02-17T00:32:55;8.10;;;6.20;;
495;SDS011;39559;48.630;9.162;2023-02-17T00:37:26;6.53;;;5.80;;
495;SDS011;39559;48.630;9.162;2023-02-17T00:39:52;6.07;;;5.00;;
495;SDS011;39559;48.630;9.162;2023-02-17T00:42:17;9.60;;;5.43;;
495;SDS011;39559;48.630;9.162;2023-02-17T00:44:43;5.83;;;5.17;;
495;SDS011;39559;48.630;9.162;2023-02-17T00:47:08;5.97;;;5.10;;
495;SDS011;39559;48.630;9.162;2023-02-17T00:49:34;7.60;;;5.87;;
495;SDS011;39559;48.630;9.162;2023-02-17T00:51:59;7.30;;;5.30;;
495;SDS011;39559;48.630;9.162;2023-02-17T00:54:26;7.65;;;5.10;;
495;SDS011;39559;48.630;9.162;2023-02-17T00:56:52;6.90;;;5.88;;
495;SDS011;39559;48.630;9.162;2023-02-17T01:01:25;7.60;;;4.93;;
495;SDS011;39559;48.630;9.162;2023-02-17T01:03:50;5.60;;;4.90;;
495;SDS011;39559;48.630;9.162;2023-02-17T01:06:19;8.70;;;5.10;;
495;SDS011;39559;48.630;9.162;2023-02-17T01:08:47;6.30;;;5.00;;
495;SDS011;39559;48.630;9.162;2023-02-17T01:11:21;9.53;;;5.60;;
495;SDS011;39559;48.630;9.162;2023-02-17T01:13:48;6.18;;;5.45;;
495;SDS011;39559;48.630;9.162;2023-02-17T01:16:18;7.27;;;5.23;;
495;SDS011;39559;48.630;9.162;2023-02-17T01:18:45;6.25;;;4.88;;
495;SDS011;39559;48.630;9.162;2023-02-17T01:21:18;9.60;;;5.23;;
495;SDS011;39559;48.630;9.162;2023-02-17T01:25:23;7.07;;;5.60;;
495;SDS011;39559;48.630;9.162;2023-02-17T01:27:48;7.00;;;4.97;;
495;SDS011;39559;48.630;9.162;2023-02-17T01:30:14;7.73;;;5.30;;
495;SDS011;39559;48.630;9.162;2023-02-17T01:32:39;7.27;;;5.10;;
495;SDS011;39559;48.630;9.162;2023-02-17T01:35:05;7.37;;;5.47;;
495;SDS011;39559;48.630;9.162;2023-02-17T01:37:31;7.63;;;5.10;;
495;SDS011;39559;48.630;9.162;2023-02-17T01:39:58;7.03;;;5.10;;
495;SDS011;39559;48.630;9.162;2023-02-17T01:42:23;5.40;;;4.90;;
495;SDS011;39559;48.630;9.162;2023-02-17T01:52:15;6.57;;;4.88;;
495;SDS011;39559;48.630;9.162;2023-02-17T01:54:49;7.50;;;5.10;;
495;SDS011;39559;48.630;9.162;2023-02-17T01:57:28;5.75;;;5.10;;
495;SDS011;39559;48.630;9.162;2023-02-17T01:59:56;8.55;;;4.85;;
495;SDS011;39559;48.630;9.162;2023-02-17T02:02:22;6.32;;;5.22;;
495;SDS011;39559;48.630;9.162;2023-02-17T02:04:48;7.43;;;4.93;;
495;SDS011;39559;48.630;9.162;2023-02-17T02:07:17;7.85;;;5.38;;
495;SDS011;39559;48.630;9.162;2023-02-17T02:09:51;9.45;;;4.72;;
495;SDS011;39559;48.630;9.162;2023-02-17T02:13:21;8.27;;;5.22;;
495;SDS011;39559;48.630;9.162;2023-02-17T02:15:49;7.27;;;5.20;;
495;SDS011;39559;48.630;9.162;2023-02-17T02:21:09;7.25;;;5.15;;
495;SDS011;39559;48.630;9.162;2023-02-17T02:34:37;5.65;;;4.80;;
495;SDS011;39559;48.630;9.162;2023-02-17T02:37:31;7.57;;;5.15;;
495;SDS011;39559;48.630;9.162;2023-02-17T02:40:02;6.38;;;5.53;;
495;SDS011;39559;48.630;9.162;2023-02-17T02:42:31;6.78;;;4.82;;
495;SDS011;39559;48.630;9.162;2023-02-17T02:44:58;9.32;;;4.97;;
495;SDS011;39559;48.630;9.162;2023-02-17T02:50:14;5.72;;;5.10;;
495;SDS011;39559;48.630;9.162;2023-02-17T02:52:49;6.90;;;5.20;;
495;SDS011;39559;48.630;9.162;2023-02-17T03:06:36;7.80;;;5.47;;
495;SDS011;39559;48.630;9.162;2023-02-17T03:09:05;8.85;;;5.45;;
495;SDS011;39559;48.630;9.162;2023-02-17T03:11:35;5.72;;;4.72;;
495;SDS011;39559;48.630;9.162;2023-02-17T03:14:05;5.80;;;4.90;;
495;SDS011;39559;48.630;9.162;2023-02-17T03:16:35;6.10;;;4.80;;
495;SDS011;39559;48.630;9.162;2023-02-17T03:19:02;6.93;;;4.95;;
495;SDS011;39559;48.630;9.162;2023-02-17T03:21:32;6.18;;;5.55;;
495;SDS011;39559;48.630;9.162;2023-02-17T03:25:17;9.05;;;5.43;;
495;SDS011;39559;48.630;9.162;2023-02-17T03:27:43;8.00;;;5.10;;
495;SDS011;39559;48.630;9.162;2023-02-17T03:30:08;5.90;;;5.30;;
495;SDS011;39559;48.630;9.162;2023-02-17T03:32:34;7.83;;;5.20;;
495;SDS011;39559;48.630;9.162;2023-02-17T03:35:00;7.60;;;5.20;;
495;SDS011;39559;48.630;9.162;2023-02-17T03:37:26;7.72;;;5.55;;
495;SDS011;39559;48.630;9.162;2023-02-17T03:39:52;6.73;;;4.80;;
495;SDS011;39559;48.630;9.162;2023-02-17T03:42:17;7.87;;;5.90;;
495;SDS011;39559;48.630;9.162;2023-02-17T03:44:43;8.70;;;5.40;;
495;SDS011;39559;48.630;9.162;2023-02-17T03:49:16;9.23;;;5.15;;
495;SDS011;39559;48.630;9.162;2023-02-17T03:51:41;6.83;;;6.13;;
495;SDS011;39559;48.630;9.162;2023-02-17T03:54:07;11.30;;;5.93;;
495;SDS011;39559;48.630;9.162;2023-02-17T03:56:32;10.40;;;5.63;;
495;SDS011;39559;48.630;9.162;2023-02-17T03:58:58;9.03;;;5.70;;
495;SDS011;39559;48.630;9.162;2023-02-17T04:01:23;7.70;;;5.20;;
495;SDS011;39559;48.630;9.162;2023-02-17T04:03:49;8.00;;;5.60;;
495;SDS011;39559;48.630;9.162;2023-02-17T04:06:14;6.60;;;5.57;;
495;SDS011;39559;48.630;9.162;2023-02-17T04:08:40;7.63;;;6.13;;
495;SDS011;39559;48.630;9.162;2023-02-17T04:13:15;5.80;;;4.90;;
495;SDS011;39559;48.630;9.162;2023-02-17T04:15:40;7.90;;;5.10;;
495;SDS011;39559;48.630;9.162;2023-02-17T04:18:06;7.80;;;5.33;;
495;SDS011;39559;48.630;9.162;2023-02-17T04:20:31;5.70;;;4.90;;
495;SDS011;39559;48.630;9.162;2023-02-17T04:22:57;8.33;;;5.93;;
495;SDS011;39559;48.630;9.162;2023-02-17T04:25:22;6.87;;;5.57;;
495;SDS011;39559;48.630;9.162;2023-02-17T04:27:48;7.90;;;5.57;;
495;SDS011;39559;48.630;9.162;2023-02-17T04:30:13;8.60;;;6.10;;
495;SDS011;39559;48.630;9.162;2023-02-17T04:32:39;7.83;;;6.20;;
495;SDS011;39559;48.630;9.162;2023-02-17T04:37:13;11.02;;;5.70;;
495;SDS011;39559;48.630;9.162;2023-02-17T04:39:39;6.53;;;5.60;;
495;SDS011;39559;48.630;9.162;2023-02-17T04:42:04;9.43;;;6.10;;
495;SDS011;39559;48.630;9.162;2023-02-17T04:44:30;6.40;;;5.63;;
495;SDS011;39559;48.630;9.162;2023-02-17T04:46:55;6.60;;;5.80;;
495;SDS011;39559;48.630;9.162;2023-02-17T04:49:21;8.03;;;6.50;;
495;SDS011;39559;48.630;9.162;2023-02-17T04:51:46;6.33;;;5.37;;
495;SDS011;39559;48.630;9.162;2023-02-17T04:54:12;10.47;;;6.43;;
495;SDS011;39559;48.630;9.162;2023-02-17T04:56:37;7.40;;;5.90;;
495;SDS011;39559;48.630;9.162;2023-02-17T05:01:12;7.88;;;6.60;;
495;SDS011;39559;48.630;9.162;2023-02-17T05:03:38;7.83;;;5.60;;
495;SDS011;39559;48.630;9.162;2023-02-17T05:06:03;8.13;;;5.50;;
495;SDS011;39559;48.630;9.162;2023-02-17T05:08:29;5.93;;;5.33;;
495;SDS011;39559;48.630;9.162;2023-02-17T05:10:54;8.57;;;6.07;;
495;SDS011;39559;48.630;9.162;2023-02-17T05:13:20;9.13;;;6.43;;
495;SDS011;39559;48.630;9.162;2023-02-17T05:15:45;7.40;;;6.27;;
495;SDS011;39559;48.630;9.162;2023-02-17T05:18:11;7.00;;;5.67;;
495;SDS011;39559;48.630;9.162;2023-02-17T05:20:37;8.50;;;5.80;;
495;SDS011;39559;48.630;9.162;2023-02-17T05:25:11;6.60;;;5.50;;
495;SDS011;39559;48.630;9.162;2023-02-17T05:27:37;8.77;;;5.50;;
495;SDS011;39559;48.630;9.162;2023-02-17T05:30:03;10.05;;;6.70;;
495;SDS011;39559;48.630;9.162;2023-02-17T05:32:29;9.25;;;7.43;;
495;SDS011;39559;48.630;9.162;2023-02-17T05:34:54;7.60;;;5.50;;
495;SDS011;39559;48.630;9.162;2023-02-17T05:37:20;9.87;;;6.53;;
495;SDS011;39559;48.630;9.162;2023-02-17T05:39:45;7.97;;;6.07;;
495;SDS011;39559;48.630;9.162;2023-02-17T05:42:11;8.20;;;5.73;;
495;SDS011;39559;48.630;9.162;2023-02-17T05:44:36;9.53;;;5.67;;
495;SDS011;39559;48.630;9.162;2023-02-17T05:49:09;6.05;;;4.40;;
495;SDS011;39559;48.630;9.162;2023-02-17T05:51:35;5.40;;;4.90;;
495;SDS011;39559;48.630;9.162;2023-02-17T05:54:01;7.00;;;5.43;;
495;SDS011;39559;48.630;9.162;2023-02-17T05:56:26;5.30;;;4.80;;
495;SDS011;39559;48.630;9.162;2023-02-17T05:58:52;7.50;;;5.40;;
495;SDS011;39559;48.630;9.162;2023-02-17T06:01:17;5.90;;;5.17;;
495;SDS011;39559;48.630;9.162;2023-02-17T06:03:43;6.53;;;5.30;;
495;SDS011;39559;48.630;9.162;2023-02-17T06:06:09;6.27;;;5.13;;
495;SDS011;39559;48.630;9.162;2023-02-17T06:08:34;6.67;;;5.97;;
495;SDS011;39559;48.630;9.162;2023-02-17T06:13:08;9.15;;;5.65;;
495;SDS011;39559;48.630;9.162;2023-02-17T06:15:34;9.57;;;5.50;;
495;SDS011;39559;48.630;9.162;2023-02-17T06:17:59;5.50;;;4.87;;
495;SDS011;39559;48.630;9.162;2023-02-17T06:20:25;10.80;;;5.33;;
495;SDS011;39559;48.630;9.162;2023-02-17T06:22:50;6.30;;;5.47;;
495;SDS011;39559;48.630;9.162;2023-02-17T06:25:16;7.33;;;5.63;;
495;SDS011;39559;48.630;9.162;2023-02-17T06:27:41;10.30;;;8.20;;
495;SDS011;39559;48.630;9.162;2023-02-17T06:30:08;9.75;;;8.50;;
495;SDS011;39559;48.630;9.162;2023-02-17T06:32:35;10.23;;;8.00;;
495;SDS011;39559;48.630;9.162;2023-02-17T06:37:07;8.48;;;6.53;;
495;SDS011;39559;48.630;9.162;2023-02-17T06:39:33;9.70;;;7.70;;
495;SDS011;39559;48.630;9.162;2023-02-17T06:41:58;8.77;;;6.57;;
495;SDS011;39559;48.630;9.162;2023-02-17T06:44:24;7.27;;;6.57;;
495;SDS011;39559;48.630;9.162;2023-02-17T06:46:50;8.67;;;7.30;;
495;SDS011;39559;48.630;9.162;2023-02-17T06:49:15;11.03;;;7.10;;
495;SDS011;39559;48.630;9.162;2023-02-17T06:51:41;11.53;;;9.60;;
495;SDS011;39559;48.630;9.162;2023-02-17T06:54:06;11.43;;;6.07;;
495;SDS011;39559;48.630;9.162;2023-02-17T06:56:32;7.60;;;6.00;;
495;SDS011;39559;48.630;9.162;2023-02-17T07:01:13;10.38;;;8.10;;
495;SDS011;39559;48.630;9.162;2023-02-17T07:03:41;7.45;;;6.03;;
495;SDS011;39559;48.630;9.162;2023-02-17T07:06:06;6.50;;;5.53;;
495;SDS011;39559;48.630;9.162;2023-02-17T07:08:32;5.60;;;4.80;;
495;SDS011;39559;48.630;9.162;2023-02-17T07:10:57;6.13;;;4.83;;
495;SDS011;39559;48.630;9.162;2023-02-17T07:13:23;7.00;;;5.10;;
495;SDS011;39559;48.630;9.162;2023-02-17T07:15:48;8.00;;;4.90;;
495;SDS011;39559;48.630;9.162;2023-02-17T07:18:14;6.10;;;5.30;;
495;SDS011;39559;48.630;9.162;2023-02-17T07:20:39;5.67;;;5.17;;
495;SDS011;39559;48.630;9.162;2023-02-17T07:25:05;5.43;;;4.93;;
495;SDS011;39559;48.630;9.162;2023-02-17T07:27:31;6.77;;;4.90;;
495;SDS011;39559;48.630;9.162;2023-02-17T07:29:58;7.60;;;4.97;;
495;SDS011;39559;48.630;9.162;2023-02-17T07:32:24;6.83;;;4.77;;
495;SDS011;39559;48.630;9.162;2023-02-17T07:34:49;7.13;;;5.07;;
495;SDS011;39559;48.630;9.162;2023-02-17T07:37:15;7.97;;;5.17;;
495;SDS011;39559;48.630;9.162;2023-02-17T07:39:41;6.03;;;5.07;;
495;SDS011;39559;48.630;9.162;2023-02-17T07:42:06;5.10;;;4.27;;
495;SDS011;39559;48.630;9.162;2023-02-17T07:44:32;7.50;;;4.80;;
495;SDS011;39559;48.630;9.162;2023-02-17T07:49:04;4.80;;;4.30;;
495;SDS011;39559;48.630;9.162;2023-02-17T07:51:30;9.07;;;4.70;;
495;SDS011;39559;48.630;9.162;2023-02-17T07:53:55;5.80;;;4.77;;
495;SDS011;39559;48.630;9.162;2023-02-17T07:56:21;5.80;;;4.60;;
495;SDS011;39559;48.630;9.162;2023-02-17T07:58:47;5.18;;;4.03;;
495;SDS011;39559;48.630;9.162;2023-02-17T08:01:15;5.38;;;4.57;;
495;SDS011;39559;48.630;9.162;2023-02-17T08:03:43;7.15;;;5.63;;
495;SDS011;39559;48.630;9.162;2023-02-17T08:06:16;7.28;;;4.47;;
495;SDS011;39559;48.630;9.162;2023-02-17T08:08:46;5.90;;;4.00;;
495;SDS011;39559;48.630;9.162;2023-02-17T08:13:02;4.95;;;4.40;;
495;SDS011;39559;48.630;9.162;2023-02-17T08:15:45;5.55;;;5.03;;
495;SDS011;39559;48.630;9.162;2023-02-17T08:18:11;5.13;;;4.63;;
495;SDS011;39559;48.630;9.162;2023-02-17T08:20:37;6.57;;;4.80;;
495;SDS011;39559;48.630;9.162;2023-02-17T08:23:02;5.53;;;4.47;;
495;SDS011;39559;48.630;9.162;2023-02-17T08:25:32;5.33;;;4.50;;
495;SDS011;39559;48.630;9.162;2023-02-17T08:27:58;6.28;;;5.10;;
495;SDS011;39559;48.630;9.162;2023-02-17T08:30:24;6.03;;;4.97;;
495;SDS011;39559;48.630;9.162;2023-02-17T08:32:50;6.67;;;4.70;;
495;SDS011;39559;48.630;9.162;2023-02-17T08:37:02;5.75;;;4.70;;
495;SDS011;39559;48.630;9.162;2023-02-17T08:39:31;6.20;;;4.55;;
495;SDS011;39559;48.630;9.162;2023-02-17T08:41:57;6.15;;;4.20;;
495;SDS011;39559;48.630;9.162;2023-02-17T08:44:23;5.87;;;4.30;;
495;SDS011;39559;48.630;9.162;2023-02-17T08:46:50;5.68;;;4.25;;
495;SDS011;39559;48.630;9.162;2023-02-17T08:49:17;7.25;;;4.35;;
495;SDS011;39559;48.630;9.162;2023-02-17T08:51:48;6.68;;;4.43;;
495;SDS011;39559;48.630;9.162;2023-02-17T08:54:15;4.85;;;4.35;;
495;SDS011;39559;48.630;9.162;2023-02-17T08:56:41;9.10;;;5.20;;
495;SDS011;39559;48.630;9.162;2023-02-17T09:01:00;4.50;;;4.10;;
495;SDS011;39559;48.630;9.162;2023-02-17T09:03:26;4.93;;;4.43;;
495;SDS011;39559;48.630;9.162;2023-02-17T09:05:55;6.43;;;4.80;;
495;SDS011;39559;48.630;9.162;2023-02-17T09:08:22;5.45;;;4.65;;
495;SDS011;39559;48.630;9.162;2023-02-17T09:10:48;4.70;;;4.20;;
495;SDS011;39559;48.630;9.162;2023-02-17T09:13:14;5.05;;;4.55;;
495;SDS011;39559;48.630;9.162;2023-02-17T09:15:40;5.93;;;4.70;;
495;SDS011;39559;48.630;9.162;2023-02-17T09:18:06;6.53;;;5.60;;
495;SDS011;39559;48.630;9.162;2023-02-17T09:20:31;5.07;;;4.50;;
495;SDS011;39559;48.630;9.162;2023-02-17T09:24:59;4.93;;;4.45;;
495;SDS011;39559;48.630;9.162;2023-02-17T09:27:24;5.17;;;4.40;;
495;SDS011;39559;48.630;9.162;2023-02-17T09:29:50;4.67;;;4.13;;
495;SDS011;39559;48.630;9.162;2023-02-17T09:32:15;4.67;;;3.87;;
495;SDS011;39559;48.630;9.162;2023-02-17T09:34:41;4.80;;;4.20;;
495;SDS011;39559;48.630;9.162;2023-02-17T09:37:17;4.45;;;4.05;;
495;SDS011;39559;48.630;9.162;2023-02-17T09:39:44;4.40;;;3.90;;
495;SDS011;39559;48.630;9.162;2023-02-17T09:42:12;5.40;;;4.45;;
495;SDS011;39559;48.630;9.162;2023-02-17T09:44:44;4.90;;;3.90;;
495;SDS011;39559;48.630;9.162;2023-02-17T09:49:00;5.10;;;3.85;;
495;SDS011;39559;48.630;9.162;2023-02-17T09:51:32;5.55;;;4.05;;
495;SDS011;39559;48.630;9.162;2023-02-17T09:54:22;5.07;;;4.57;;
495;SDS011;39559;48.630;9.162;2023-02-17T09:56:48;4.40;;;3.90;;
495;SDS011;39559;48.630;9.162;2023-02-17T09:59:35;5.63;;;5.03;;
495;SDS011;39559;48.630;9.162;2023-02-17T10:02:18;4.13;;;3.50;;
495;SDS011;39559;48.630;9.162;2023-02-17T10:04:51;5.28;;;4.30;;
495;SDS011;39559;48.630;9.162;2023-02-17T10:07:20;7.35;;;3.88;;
495;SDS011;39559;48.630;9.162;2023-02-17T10:10:03;4.38;;;3.65;;
495;SDS011;39559;48.630;9.162;2023-02-17T10:12:56;4.35;;;3.95;;
495;SDS011;39559;48.630;9.162;2023-02-17T10:15:25;5.85;;;4.20;;
495;SDS011;39559;48.630;9.162;2023-02-17T10:20:42;5.05;;;4.18;;
495;SDS011;39559;48.630;9.162;2023-02-17T10:23:24;4.88;;;4.00;;
495;SDS011;39559;48.630;9.162;2023-02-17T10:28:49;4.75;;;3.60;;
495;SDS011;39559;48.630;9.162;2023-02-17T10:36:59;4.10;;;3.70;;
495;SDS011;39559;48.630;9.162;2023-02-17T10:39:29;4.50;;;3.80;;
495;SDS011;39559;48.630;9.162;2023-02-17T10:41:58;3.95;;;3.63;;
495;SDS011;39559;48.630;9.162;2023-02-17T10:44:25;3.78;;;3.25;;
495;SDS011;39559;48.630;9.162;2023-02-17T10:46:51;5.07;;;4.07;;
495;SDS011;39559;48.630;9.162;2023-02-17T10:49:26;4.53;;;3.90;;
495;SDS011;39559;48.630;9.162;2023-02-17T10:57:21;6.22;;;4.20;;
495;SDS011;39559;48.630;9.162;2023-02-17T11:00:53;3.63;;;3.33;;
495;SDS011;39559;48.630;9.162;2023-02-17T11:03:22;5.50;;;4.18;;
495;SDS011;39559;48.630;9.162;2023-02-17T11:05:52;4.75;;;3.58;;
495;SDS011;39559;48.630;9.162;2023-02-17T11:08:28;4.30;;;3.90;;
495;SDS011;39559;48.630;9.162;2023-02-17T11:11:19;5.32;;;3.50;;
495;SDS011;39559;48.630;9.162;2023-02-17T11:16:40;3.85;;;3.50;;
495;SDS011;39559;48.630;9.162;2023-02-17T11:19:20;5.05;;;3.92;;
495;SDS011;39559;48.630;9.162;2023-02-17T11:21:49;5.45;;;3.80;;
495;SDS011;39559;48.630;9.162;2023-02-17T11:24:58;5.70;;;3.90;;
495;SDS011;39559;48.630;9.162;2023-02-17T11:27:25;5.10;;;3.92;;
495;SDS011;39559;48.630;9.162;2023-02-17T11:29:51;4.60;;;4.03;;
495;SDS011;39559;48.630;9.162;2023-02-17T11:32:16;4.20;;;3.77;;
495;SDS011;39559;48.630;9.162;2023-02-17T11:34:44;4.32;;;3.95;;
495;SDS011;39559;48.630;9.162;2023-02-17T11:37:22;5.82;;;4.00;;
495;SDS011;39559;48.630;9.162;2023-02-17T11:39:52;5.25;;;4.05;;
495;SDS011;39559;48.630;9.162;2023-02-17T11:42:25;4.40;;;3.90;;
495;SDS011;39559;48.630;9.162;2023-02-17T11:44:53;5.63;;;4.50;;
495;SDS011;39559;48.630;9.162;2023-02-17T11:54:20;6.22;;;3.88;;
495;SDS011;39559;48.630;9.162;2023-02-17T12:09:02;3.63;;;3.33;;
495;SDS011;39559;48.630;9.162;2023-02-17T12:15:28;4.50;;;3.80;;
495;SDS011;39559;48.630;9.162;2023-02-17T12:26:10;4.20;;;3.80;;
495;SDS011;39559;48.630;9.162;2023-02-17T12:31:37;4.10;;;3.60;;
495;SDS011;39559;48.630;9.162;2023-02-17T12:36:45;4.40;;;4.00;;
495;SDS011;39559;48.630;9.162;2023-02-17T12:42:26;5.63;;;4.47;;
495;SDS011;39559;48.630;9.162;2023-02-17T12:45:09;4.15;;;3.75;;
495;SDS011;39559;48.630;9.162;2023-02-17T12:50:20;4.70;;;4.10;;
495;SDS011;39559;48.630;9.162;2023-02-17T12:52:55;4.50;;;4.10;;
495;SDS011;39559;48.630;9.162;2023-02-17T12:55:28;4.68;;;3.92;;
495;SDS011;39559;48.630;9.162;2023-02-17T12:58:01;4.20;;;3.60;;
495;SDS011;39559;48.630;9.162;2023-02-17T13:00:49;4.82;;;4.30;;
495;SDS011;39559;48.630;9.162;2023-02-17T13:03:19;6.30;;;3.88;;
495;SDS011;39559;48.630;9.162;2023-02-17T13:05:46;6.30;;;4.30;;
495;SDS011;39559;48.630;9.162;2023-02-17T13:08:21;4.03;;;3.55;;
495;SDS011;39559;48.630;9.162;2023-02-17T13:11:04;4.10;;;3.80;;
495;SDS011;39559;48.630;9.162;2023-02-17T13:13:32;4.28;;;3.60;;
495;SDS011;39559;48.630;9.162;2023-02-17T13:16:09;4.03;;;3.65;;
495;SDS011;39559;48.630;9.162;2023-02-17T13:18:40;5.75;;;3.50;;
495;SDS011;39559;48.630;9.162;2023-02-17T13:21:25;4.05;;;3.65;;
495;SDS011;39559;48.630;9.162;2023-02-17T13:24:51;3.70;;;3.22;;
495;SDS011;39559;48.630;9.162;2023-02-17T13:27:21;4.75;;;3.92;;
495;SDS011;39559;48.630;9.162;2023-02-17T13:32:35;4.15;;;3.78;;
495;SDS011;39559;48.630;9.162;2023-02-17T13:35:07;4.75;;;3.58;;
495;SDS011;39559;48.630;9.162;2023-02-17T13:37:38;5.75;;;4.35;;
495;SDS011;39559;48.630;9.162;2023-02-17T13:42:43;5.10;;;3.80;;
495;SDS011;39559;48.630;9.162;2023-02-17T13:48:38;3.83;;;3.50;;
495;SDS011;39559;48.630;9.162;2023-02-17T13:51:04;4.50;;;3.73;;
495;SDS011;39559;48.630;9.162;2023-02-17T13:53:35;3.55;;;3.25;;
495;SDS011;39559;48.630;9.162;2023-02-17T13:56:04;6.47;;;4.45;;
495;SDS011;39559;48.630;9.162;2023-02-17T13:58:31;3.75;;;3.30;;
495;SDS011;39559;48.630;9.162;2023-02-17T14:01:13;4.00;;;3.60;;
495;SDS011;39559;48.630;9.162;2023-02-17T14:03:46;5.35;;;4.57;;
495;SDS011;39559;48.630;9.162;2023-02-17T14:06:27;5.38;;;3.90;;
495;SDS011;39559;48.630;9.162;2023-02-17T14:08:56;3.97;;;3.58;;
495;SDS011;39559;48.630;9.162;2023-02-17T14:12:35;4.30;;;3.90;;
495;SDS011;39559;48.630;9.162;2023-02-17T14:15:01;6.80;;;3.90;;
495;SDS011;39559;48.630;9.162;2023-02-17T14:17:30;3.63;;;3.33;;
495;SDS011;39559;48.630;9.162;2023-02-17T14:19:57;4.22;;;3.38;;
495;SDS011;39559;48.630;9.162;2023-02-17T14:22:24;6.05;;;3.50;;
495;SDS011;39559;48.630;9.162;2023-02-17T14:25:01;3.90;;;3.60;;
495;SDS011;39559;48.630;9.162;2023-02-17T14:27:48;4.05;;;3.65;;
495;SDS011;39559;48.630;9.162;2023-02-17T14:30:33;3.70;;;3.40;;
495;SDS011;39559;48.630;9.162;2023-02-17T14:36:37;3.97;;;3.58;;
495;SDS011;39559;48.630;9.162;2023-02-17T14:39:10;3.78;;;3.47;;
495;SDS011;39559;48.630;9.162;2023-02-17T14:41:39;4.03;;;3.63;;
495;SDS011;39559;48.630;9.162;2023-02-17T14:44:05;4.73;;;3.60;;
495;SDS011;39559;48.630;9.162;2023-02-17T14:46:31;4.03;;;3.63;;
495;SDS011;39559;48.630;9.162;2023-02-17T14:48:57;3.80;;;3.45;;
495;SDS011;39559;48.630;9.162;2023-02-17T14:51:24;3.93;;;3.53;;
495;SDS011;39559;48.630;9.162;2023-02-17T14:53:59;3.25;;;3.00;;
495;SDS011;39559;48.630;9.162;2023-02-17T14:56:34;3.65;;;3.35;;
495;SDS011;39559;48.630;9.162;2023-02-17T15:00:30;3.88;;;3.25;;
495;SDS011;39559;48.630;9.162;2023-02-17T15:02:55;4.37;;;3.70;;
495;SDS011;39559;48.630;9.162;2023-02-17T15:05:21;4.67;;;4.27;;
495;SDS011;39559;48.630;9.162;2023-02-17T15:07:47;6.35;;;4.63;;
495;SDS011;39559;48.630;9.162;2023-02-17T15:10:17;4.03;;;3.45;;
495;SDS011;39559;48.630;9.162;2023-02-17T15:12:46;4.25;;;3.88;;
495;SDS011;39559;48.630;9.162;2023-02-17T15:15:15;3.53;;;3.22;;
495;SDS011;39559;48.630;9.162;2023-02-17T15:17:41;3.60;;;3.30;;
495;SDS011;39559;48.630;9.162;2023-02-17T15:20:07;4.30;;;3.20;;
495;SDS011;39559;48.630;9.162;2023-02-17T15:24:29;3.20;;;2.95;;
495;SDS011;39559;48.630;9.162;2023-02-17T15:26:57;5.85;;;4.03;;
495;SDS011;39559;48.630;9.162;2023-02-17T15:29:23;3.40;;;3.10;;
495;SDS011;39559;48.630;9.162;2023-02-17T15:31:51;4.30;;;3.25;;
495;SDS011;39559;48.630;9.162;2023-02-17T15:34:19;3.33;;;3.03;;
495;SDS011;39559;48.630;9.162;2023-02-17T15:36:47;3.72;;;3.42;;
495;SDS011;39559;48.630;9.162;2023-02-17T15:39:14;3.40;;;3.10;;
495;SDS011;39559;48.630;9.162;2023-02-17T15:41:42;3.40;;;3.10;;
495;SDS011;39559;48.630;9.162;2023-02-17T15:44:16;3.20;;;2.83;;
495;SDS011;39559;48.630;9.162;2023-02-17T15:48:26;3.63;;;2.75;;
495;SDS011;39559;48.630;9.162;2023-02-17T15:50:54;3.15;;;2.85;;
495;SDS011;39559;48.630;9.162;2023-02-17T15:53:20;3.63;;;3.33;;
495;SDS011;39559;48.630;9.162;2023-02-17T15:55:46;3.10;;;2.90;;
495;SDS011;39559;48.630;9.162;2023-02-17T15:58:13;3.90;;;3.50;;
495;SDS011;39559;48.630;9.162;2023-02-17T16:00:42;3.22;;;2.75;;
495;SDS011;39559;48.630;9.162;2023-02-17T16:03:13;3.60;;;3.30;;
495;SDS011;39559;48.630;9.162;2023-02-17T16:05:40;3.70;;;3.30;;
495;SDS011;39559;48.630;9.162;2023-02-17T16:08:06;5.45;;;3.35;;
495;SDS011;39559;48.630;9.162;2023-02-17T16:12:22;4.32;;;3.83;;
495;SDS011;39559;48.630;9.162;2023-02-17T16:14:50;3.67;;;3.28;;
495;SDS011;39559;48.630;9.162;2023-02-17T16:17:16;3.20;;;2.90;;
495;SDS011;39559;48.630;9.162;2023-02-17T16:19:42;4.03;;;3.20;;
495;SDS011;39559;48.630;9.162;2023-02-17T16:22:07;3.23;;;2.93;;
495;SDS011;39559;48.630;9.162;2023-02-17T16:24:33;3.37;;;3.07;;
495;SDS011;39559;48.630;9.162;2023-02-17T16:26:59;3.40;;;3.10;;
495;SDS011;39559;48.630;9.162;2023-02-17T16:29:25;3.70;;;3.40;;
495;SDS011;39559;48.630;9.162;2023-02-17T16:31:51;3.88;;;2.80;;
495;SDS011;39559;48.630;9.162;2023-02-17T16:36:19;5.38;;;3.42;;
495;SDS011;39559;48.630;9.162;2023-02-17T16:38:48;3.23;;;2.80;;
495;SDS011;39559;48.630;9.162;2023-02-17T16:41:15;3.70;;;3.10;;
495;SDS011;39559;48.630;9.162;2023-02-17T16:43:42;3.35;;;2.97;;
495;SDS011;39559;48.630;9.162;2023-02-17T16:46:26;2.88;;;2.50;;
495;SDS011;39559;48.630;9.162;2023-02-17T16:48:55;3.30;;;2.95;;
495;SDS011;39559;48.630;9.162;2023-02-17T16:51:22;3.20;;;2.90;;
495;SDS011;39559;48.630;9.162;2023-02-17T16:53:47;3.07;;;2.50;;
495;SDS011;39559;48.630;9.162;2023-02-17T16:56:20;3.10;;;2.80;;
495;SDS011;39559;48.630;9.162;2023-02-17T17:00:19;3.97;;;2.78;;
495;SDS011;39559;48.630;9.162;2023-02-17T17:02:46;3.20;;;2.90;;
495;SDS011;39559;48.630;9.162;2023-02-17T17:05:12;3.10;;;2.65;;
495;SDS011;39559;48.630;9.162;2023-02-17T17:07:39;3.20;;;2.90;;
495;SDS011;39559;48.630;9.162;2023-02-17T17:10:07;6.05;;;4.40;;
495;SDS011;39559;48.630;9.162;2023-02-17T17:12:36;4.60;;;3.90;;
495;SDS011;39559;48.630;9.162;2023-02-17T17:15:02;5.90;;;5.13;;
495;SDS011;39559;48.630;9.162;2023-02-17T17:17:28;4.80;;;4.30;;
495;SDS011;39559;48.630;9.162;2023-02-17T17:19:55;3.22;;;2.92;;
495;SDS011;39559;48.630;9.162;2023-02-17T17:24:14;4.50;;;3.40;;
495;SDS011;39559;48.630;9.162;2023-02-17T17:26:40;3.87;;;3.50;;
495;SDS011;39559;48.630;9.162;2023-02-17T17:29:13;3.42;;;3.13;;
495;SDS011;39559;48.630;9.162;2023-02-17T17:31:40;3.95;;;3.15;;
495;SDS011;39559;48.630;9.162;2023-02-17T17:34:06;3.10;;;2.80;;
495;SDS011;39559;48.630;9.162;2023-02-17T17:36:33;3.30;;;3.00;;
495;SDS011;39559;48.630;9.162;2023-02-17T17:39:02;3.35;;;3.05;;
495;SDS011;39559;48.630;9.162;2023-02-17T17:41:29;3.45;;;3.13;;
495;SDS011;39559;48.630;9.162;2023-02-17T17:43:55;6.70;;;3.30;;
495;SDS011;39559;48.630;9.162;2023-02-17T17:48:12;3.08;;;2.80;;
495;SDS011;39559;48.630;9.162;2023-02-17T17:50:38;3.20;;;2.90;;
495;SDS011;39559;48.630;9.162;2023-02-17T17:53:04;5.97;;;3.38;;
495;SDS011;39559;48.630;9.162;2023-02-17T17:55:30;4.00;;;3.50;;
495;SDS011;39559;48.630;9.162;2023-02-17T17:57:58;3.50;;;3.20;;
495;SDS011;39559;48.630;9.162;2023-02-17T18:00:23;3.77;;;3.47;;
495;SDS011;39559;48.630;9.162;2023-02-17T18:02:49;3.80;;;3.50;;
495;SDS011;39559;48.630;9.162;2023-02-17T18:05:15;4.07;;;3.77;;
495;SDS011;39559;48.630;9.162;2023-02-17T18:07:40;4.10;;;3.33;;
495;SDS011;39559;48.630;9.162;2023-02-17T18:12:10;4.50;;;4.10;;
495;SDS011;39559;48.630;9.162;2023-02-17T18:14:40;5.50;;;4.40;;